Latest Weather Observations for Mount Isa

IDQ60801

Issued at 3:32 pm EST Wednesday 1 April 2015 (issued every 30 minutes, with the page automatically refreshed every 10 minutes)

About weather observations | Map of weather stations | Latest weather observations for QLD | Other Formats
Station Details ID: 029127 Name: MOUNT ISA AERO Lat: -20.68 Lon: 139.49 Height: 340.3 m
Data from the previous 72 hours. | See also: Recent months at Mount Isa
Date/Time
EST
Temp
°C
App
Temp
°C
Dew
Point
Rel
Hum
%
Delta-T
°C
Wind Press
QNH
hPa
Press
MSL
hPa
Rain
since 9 am
mm
Dir
 
Spd
km/h
Gust
km/h
Spd
kts
Gust
kts
01/02:30pm 34.8 32.9 12.9 26 13.4 E 15 19 8 10 1011.2 - 0.0
01/02:00pm 35.9 34.6 14.8 28 13.3 NNE 15 26 8 14 1011.7 - 0.0
01/01:30pm 35.4 33.5 14.3 28 13.2 NNE 17 26 9 14 1012.1 - 0.0
01/12:30pm 34.2 32.9 15.8 33 11.7 NE 17 24 9 13 1013.1 - 0.0
01/12:00pm 34.0 33.0 16.6 35 11.2 NE 17 19 9 10 1013.8 1012.1 0.0
01/11:30am 33.2 31.8 17.1 38 10.4 NE 20 28 11 15 1014.5 - 0.0
01/11:00am 32.1 30.4 17.2 41 9.6 NNE 22 32 12 17 1015.0 - 0.0
01/10:30am 31.4 29.7 17.1 42 9.2 NNE 22 33 12 18 1015.3 - 0.0
01/10:00am 31.0 29.1 16.7 42 9.1 ENE 22 30 12 16 1015.5 - 0.0
01/09:30am 30.0 27.9 16.2 43 8.7 ENE 22 30 12 16 1015.5 - 0.0
01/09:00am 29.1 27.6 16.2 45 8.1 E 19 26 10 14 1015.6 1013.8 0.0
01/08:30am 29.1 26.3 15.4 43 8.5 E 24 30 13 16 1015.5 - 0.0
01/08:28am 29.0 25.5 15.5 44 8.4 ENE 28 30 15 16 1015.5 - 0.0
01/08:00am 28.2 28.6 15.3 45 8.0 E 7 11 4 6 1015.1 - 0.0
01/07:00am 25.3 25.9 15.7 55 5.9 E 7 9 4 5 1014.7 - 0.0
01/06:30am 25.1 25.4 16.0 57 5.6 ENE 9 15 5 8 1014.5 - 0.0
01/05:30am 25.4 26.6 17.3 61 5.1 E 7 11 4 6 1014.0 - 0.0
01/05:00am 25.7 25.8 17.5 60 5.2 E 13 17 7 9 1013.7 - 0.0
01/04:30am 26.0 26.6 17.7 60 5.3 E 11 19 6 10 1013.7 - 0.0
01/04:00am 26.5 27.0 17.5 57 5.7 E 11 20 6 11 1013.6 - 0.0
01/03:30am 26.5 26.2 17.4 57 5.8 ESE 15 20 8 11 1013.7 - 0.0
01/03:00am 26.9 26.9 17.3 55 6.1 ESE 13 19 7 10 1013.7 1012.0 0.0
01/02:30am 27.3 26.1 17.0 53 6.5 ESE 19 26 10 14 1014.0 - 0.0
01/02:00am 27.8 26.5 16.7 50 7.0 ESE 19 26 10 14 1014.3 - 0.0
01/01:30am 28.5 27.2 15.8 46 7.9 ESE 17 24 9 13 1014.6 - 0.0
01/01:00am 28.1 29.2 18.0 54 6.5 SE 9 13 5 7 1014.6 - 0.0
01/12:30am 27.0 29.3 17.8 57 5.9 NNE 2 6 1 3 1014.5 - 0.0
 
Date/Time
EST
Temp
°C
App
Temp
°C
Dew
Point
Rel
Hum
%
Delta-T
°C
Wind Press
QNH
hPa
Press
MSL
hPa
Rain
since 9 am
mm
Dir
 
Spd
km/h
Gust
km/h
Spd
kts
Gust
kts
31/11:30pm 28.8 29.4 17.6 50 7.2 N 11 15 6 8 1014.8 - 0.0
31/11:00pm 29.4 30.5 17.0 47 7.9 NW 7 9 4 5 1014.9 - 0.0
31/10:30pm 29.9 30.1 16.7 45 8.4 WNW 11 17 6 9 1015.1 - 0.0
31/10:00pm 30.7 29.0 16.3 42 9.1 W 20 32 11 17 1015.1 - 0.0
31/09:30pm 30.6 31.8 16.8 43 8.8 SSE 6 13 3 7 1014.6 - 0.0
31/09:00pm 29.7 32.3 17.6 48 7.8 CALM 0 0 0 0 1014.1 1011.9 0.0
31/08:30pm 30.2 31.0 17.3 46 8.3 N 9 13 5 7 1013.9 - 0.0
31/08:00pm 30.1 31.1 16.9 45 8.4 NNW 7 9 4 5 1013.5 - 0.0
31/07:30pm 31.2 31.8 16.8 42 9.2 NE 9 9 5 5 1013.1 - 0.0
31/07:00pm 32.4 32.3 16.0 37 10.4 NE 11 15 6 8 1012.8 - 0.0
31/06:30pm 33.0 32.3 16.4 37 10.6 NE 15 19 8 10 1012.5 - 0.0
31/06:00pm 33.8 33.3 15.9 34 11.4 NE 13 17 7 9 1012.3 1010.0 0.0
31/05:30pm 35.3 34.3 15.5 30 12.6 NE 15 20 8 11 1012.1 - 0.0
31/05:00pm 34.9 34.2 14.2 28 12.9 NE 11 17 6 9 1012.1 - 0.0
31/04:30pm 35.8 35.7 14.0 27 13.6 N 7 13 4 7 1012.0 - 0.0
31/04:00pm 35.7 35.7 14.1 27 13.5 ENE 7 11 4 6 1012.1 - 0.0
31/03:30pm 35.2 34.8 14.0 28 13.2 ESE 9 17 5 9 1012.3 - 0.0
31/03:00pm 35.2 34.4 14.0 28 13.2 E 11 24 6 13 1012.6 1010.3 0.0
31/02:30pm 36.2 34.5 13.7 26 14.0 ESE 15 20 8 11 1013.0 - 0.0
31/02:00pm 35.6 34.7 13.7 27 13.6 NNE 11 19 6 10 1013.6 - 0.0
31/01:30pm 34.5 33.8 14.3 29 12.6 NE 11 20 6 11 1014.0 - 0.0
31/01:00pm 36.8 34.5 14.1 25 14.2 NE 19 26 10 14 1014.6 - 0.0
31/12:30pm 34.9 33.0 14.2 28 12.9 NE 17 22 9 12 1015.1 - 0.0
31/12:00pm 34.9 32.5 14.4 29 12.8 NNE 20 30 11 16 1015.5 1013.2 0.0
31/11:30am 35.3 33.0 14.1 28 13.2 NE 19 28 10 15 1016.0 - 0.0
31/11:00am 34.1 31.8 14.1 30 12.4 ENE 19 28 10 15 1016.6 - 0.0
31/10:30am 33.2 30.6 13.9 31 11.9 NE 20 28 11 15 1016.8 - 0.0
31/10:00am 33.3 30.5 14.3 31 11.8 E 22 30 12 16 1016.8 - 0.0
31/09:30am 32.1 29.6 12.2 29 11.9 ESE 17 26 9 14 1017.2 - 0.0
31/09:00am 30.7 28.2 11.0 29 11.5 ESE 15 20 8 11 1017.2 1015.0 0.0
31/08:30am 29.7 27.6 9.9 29 11.3 SSE 11 15 6 8 1017.2 - 0.0
31/08:00am 27.8 25.7 8.4 29 10.7 S 9 11 5 6 1017.0 - 0.0
31/07:30am 26.3 24.9 12.3 41 8.2 SE 11 15 6 8 1016.6 - 0.0
31/07:00am 26.8 23.9 9.7 34 9.6 SSE 15 26 8 14 1016.2 - 0.0
31/06:30am 25.0 21.8 13.1 47 7.0 S 22 28 12 15 1015.9 - 0.0
31/06:00am 28.2 23.3 8.3 28 11.0 S 24 30 13 16 1015.4 1013.1 0.0
31/05:30am 28.8 24.3 8.5 28 11.3 S 22 28 12 15 1015.1 - 0.0
31/05:00am 29.2 25.2 8.9 28 11.4 S 20 30 11 16 1014.8 - 0.0
31/04:30am 29.3 25.1 9.6 29 11.2 SSE 22 35 12 19 1014.7 - 0.0
31/04:00am 29.7 25.9 11.0 31 10.9 S 22 32 12 17 1014.6 - 0.0
31/03:30am 30.2 26.2 12.9 34 10.4 S 26 32 14 17 1014.5 - 0.0
31/03:00am 30.9 26.5 14.1 36 10.3 SSE 30 41 16 22 1014.6 1012.3 0.0
31/02:55am 30.9 26.2 14.3 36 10.2 SSE 32 35 17 19 1014.6 - 0.0
31/02:30am 31.1 30.5 14.6 36 10.2 SSE 11 13 6 7 1014.6 - 0.0
31/02:00am 31.3 30.2 14.2 35 10.5 S 13 17 7 9 1015.0 - 0.0
31/01:30am 31.2 30.6 14.5 36 10.3 SSE 11 15 6 8 1015.3 - 0.0
31/01:00am 31.4 29.7 14.6 36 10.4 SSE 17 24 9 13 1015.6 - 0.0
31/12:30am 31.5 30.3 14.1 34 10.7 S 13 19 7 10 1015.9 - 0.0
31/12:00am 31.3 31.0 14.5 36 10.4 SE 9 13 5 7 1016.0 1013.8 0.0
 
Date/Time
EST
Temp
°C
App
Temp
°C
Dew
Point
Rel
Hum
%
Delta-T
°C
Wind Press
QNH
hPa
Press
MSL
hPa
Rain
since 9 am
mm
Dir
 
Spd
km/h
Gust
km/h
Spd
kts
Gust
kts
30/11:30pm 31.4 29.1 14.2 35 10.6 S 19 22 10 12 1016.2 - 0.0
30/11:00pm 30.5 30.2 14.4 37 9.9 SSE 9 11 5 6 1016.4 - 0.0
30/10:30pm 31.8 31.0 12.9 31 11.4 ESE 9 15 5 8 1016.6 - 0.0
30/10:00pm 27.7 29.2 14.6 44 8.0 CALM 0 0 0 0 1016.6 - 0.0
30/09:30pm 27.6 28.5 14.0 43 8.2 NW 2 6 1 3 1016.3 - 0.0
30/09:00pm 27.7 27.5 13.5 41 8.5 NW 7 7 4 4 1016.2 1014.0 0.0
30/08:30pm 28.5 29.9 15.4 45 8.1 ENE 2 7 1 4 1016.0 - 0.0
30/08:00pm 30.3 30.2 13.9 36 10.0 E 7 7 4 4 1015.7 - 0.0
30/07:30pm 32.1 31.6 13.9 33 11.2 E 9 11 5 6 1015.3 - 0.0
30/07:00pm 33.4 33.0 14.0 31 12.0 E 9 15 5 8 1015.0 - 0.0
30/06:30pm 34.5 33.3 11.7 25 13.7 ENE 9 15 5 8 1014.8 - 0.0
30/06:00pm 35.4 33.9 11.9 24 14.2 ESE 11 13 6 7 1014.6 1012.3 0.0
30/05:30pm 35.6 34.5 12.0 24 14.3 SE 9 17 5 9 1014.6 - 0.0
30/05:00pm 36.4 34.8 11.5 22 15.0 SSE 11 17 6 9 1014.5 - 0.0
30/04:30pm 37.0 35.6 12.3 22 15.1 ENE 11 20 6 11 1014.5 - 0.0
30/04:00pm 36.6 35.3 11.1 21 15.3 SW 9 17 5 9 1014.5 - 0.0
30/03:30pm 36.2 34.6 11.7 22 14.8 SE 11 15 6 8 1014.6 - 0.0
30/03:00pm 36.6 33.5 12.1 23 14.9 ENE 20 30 11 16 1014.5 1012.2 0.0
30/02:30pm 35.3 33.0 12.9 26 13.7 NNE 17 26 9 14 1014.9 - 0.0
30/02:00pm 35.7 33.0 13.6 26 13.7 N 20 32 11 17 1015.2 - 0.0
30/01:30pm 35.7 33.0 13.6 26 13.7 N 20 30 11 16 1015.7 - 0.0
30/01:00pm 34.8 32.5 14.0 28 12.9 N 19 28 10 15 1016.2 - 0.0
30/12:30pm 34.8 32.3 13.6 28 13.1 NE 19 26 10 14 1016.7 - 0.0
30/12:00pm 34.2 30.7 13.3 28 12.8 ENE 24 33 13 18 1017.4 1015.1 0.0
30/11:30am 33.8 30.0 12.5 27 12.9 NNE 24 33 13 18 1017.8 - 0.0
30/11:00am 33.5 28.9 12.2 27 12.8 NNE 28 35 15 19 1018.1 - 0.0
30/10:30am 33.0 28.4 12.2 28 12.5 NE 28 37 15 20 1018.4 - 0.0
30/10:00am 32.2 27.5 12.1 29 12.0 NNE 28 35 15 19 1018.4 - 0.0
30/09:30am 31.7 27.3 11.8 29 11.8 NE 26 35 14 19 1018.5 - 0.0
30/09:00am 31.2 28.1 12.3 31 11.3 NE 20 30 11 16 1018.4 1016.1 0.6
30/08:30am 30.7 28.2 14.2 36 10.1 ENE 20 30 11 16 1018.2 - 0.6
30/08:00am 29.8 29.0 15.1 40 9.1 ESE 13 19 7 10 1017.8 - 0.6
30/07:30am 28.5 28.1 15.2 44 8.2 E 11 15 6 8 1017.4 - 0.6
30/07:00am 28.3 27.3 14.6 43 8.4 ESE 13 19 7 10 1016.7 - 0.6
30/06:30am 27.0 25.8 15.1 48 7.3 ESE 15 20 8 11 1016.3 - 0.6
30/06:00am 27.3 26.6 15.3 48 7.4 SSE 13 19 7 10 1015.8 1013.5 0.6
30/05:30am 28.0 26.6 14.6 44 8.2 SSE 15 19 8 10 1015.6 - 0.6
30/05:00am 28.1 26.3 14.5 43 8.3 S 17 19 9 10 1015.6 - 0.6
30/04:30am 28.3 26.9 14.6 43 8.4 SSE 15 19 8 10 1015.1 - 0.6
30/04:00am 28.6 26.9 14.6 42 8.6 SSE 17 26 9 14 1015.1 - 0.6
30/03:30am 28.1 27.2 14.9 44 8.1 S 13 17 7 9 1015.0 - 0.6
30/03:00am 28.0 27.2 15.2 45 7.9 S 13 15 7 8 1015.2 1012.9 0.6
30/02:30am 28.4 27.5 14.9 43 8.3 S 13 17 7 9 1015.4 - 0.6
30/02:00am 29.0 28.0 14.5 41 8.9 S 13 17 7 9 1015.7 - 0.6
30/01:30am 29.4 27.7 14.8 41 9.0 SSE 17 20 9 11 1015.9 - 0.6
30/01:00am 30.1 28.3 14.5 38 9.6 S 17 24 9 13 1016.4 - 0.6
30/12:30am 27.1 29.0 19.8 64 4.8 S 9 11 5 6 1016.4 - 0.6
30/12:00am 28.4 29.2 17.4 51 7.0 S 9 9 5 5 1016.6 1014.4 0.6
 
Date/Time
EST
Temp
°C
App
Temp
°C
Dew
Point
Rel
Hum
%
Delta-T
°C
Wind Press
QNH
hPa
Press
MSL
hPa
Rain
since 9 am
mm
Dir
 
Spd
km/h
Gust
km/h
Spd
kts
Gust
kts
29/11:30pm 28.7 29.0 16.9 48 7.5 SSE 11 13 6 7 1016.8 - 0.6
29/11:00pm 28.9 29.0 16.5 47 7.8 S 11 13 6 7 1017.0 - 0.6
29/10:30pm 29.3 28.6 16.5 46 8.1 S 15 17 8 9 1017.0 - 0.6
29/10:00pm 30.3 28.8 16.2 42 8.9 S 19 24 10 13 1017.0 - 0.6
29/09:30pm 30.9 31.5 17.6 45 8.6 S 11 15 6 8 1016.8 - 0.6
29/09:00pm 28.6 32.4 23.4 73 3.6 SSE 9 11 5 6 1016.4 1014.2 0.6
29/08:30pm 28.5 33.7 25.1 82 2.4 S 7 9 4 5 1016.1 - 0.6
29/08:00pm 29.1 35.5 24.9 78 3.0 CALM 0 0 0 0 1015.8 - 0.6
29/07:30pm 29.5 36.0 25.1 77 3.1 CALM 0 0 0 0 1015.4 - 0.6
29/07:00pm 30.4 34.2 23.5 66 4.8 S 9 9 5 5 1014.9 - 0.6
29/06:30pm 30.9 36.8 24.1 67 4.8 CALM 0 4 0 2 1014.6 - 0.6
29/06:00pm 31.1 33.7 21.9 58 6.3 S 11 11 6 6 1014.4 1012.1 0.6
29/05:30pm 29.4 33.3 22.9 68 4.5 SE 7 11 4 6 1014.4 - 0.6
29/05:00pm 29.7 31.0 19.4 54 6.8 SE 11 19 6 10 1014.0 - 0.6
29/04:46pm 27.0 24.7 20.2 66 4.5 SW 32 44 17 24 1013.9 - 0.6
29/04:37pm 27.5 23.3 18.9 59 5.6 SSW 39 50 21 27 1014.4 - 0.4
29/04:33pm 27.6 23.2 18.5 57 5.9 S 39 52 21 28 1014.6 - 0.2
29/04:30pm 28.9 25.6 19.3 56 6.3 S 35 48 19 26 1014.6 - 0.0
29/04:22pm 32.4 29.6 17.4 40 9.7 SSE 28 48 15 26 1014.1 - 0.0
29/04:00pm 36.9 35.0 14.3 26 14.2 NE 17 26 9 14 1013.8 - 0.0

Other Formats:

Comma delimited format used in spreadsheet applications
http://www.bom.gov.au/fwo/IDQ60801/IDQ60801.94332.axf

JavaScript Object Notation format (JSON) in row-major order
http://www.bom.gov.au/fwo/IDQ60801/IDQ60801.94332.json